Terminal Aerodrome Forecast
Issued by NWS Jackson, MS

Home | Current Version | Previous Version | Text Only | Print | Product List | Glossary On
Versions: 1 2 3 4 5 6 7 8 9 10 11 12 13 14 15 16 17 18 19 20 21 22 23 24 25 26
000
FTUS44 KJAN 230900 AAA
TAFHBG
TAF AMD
KHBG 230911Z 2309/2406 00000KT 1/2SM FG VV002
      TEMPO 2309/2311 1SM BR
     FM231100 00000KT 4SM BR SCT002
     FM231300 VRB03KT 5SM BR SKC
     FM231500 35005KT P6SM SCT250
     FM231900 34005KT P6SM VCTS SCT050CB BKN250=

USA.gov is the U.S. government's official web portal to all federal, state and local government web resources and services.